sensor_id;sensor_type;location;lat;lon;timestamp;P1;durP1;ratioP1;P2;durP2;ratioP2
23668;SDS011;12011;47.422;15.018;2023-09-19T00:01:40;0.52;;;0.50;;
23668;SDS011;12011;47.422;15.018;2023-09-19T00:04:10;0.53;;;0.52;;
23668;SDS011;12011;47.422;15.018;2023-09-19T00:06:40;0.56;;;0.54;;
23668;SDS011;12011;47.422;15.018;2023-09-19T00:09:10;0.47;;;0.46;;
23668;SDS011;12011;47.422;15.018;2023-09-19T00:11:43;0.52;;;0.51;;
23668;SDS011;12011;47.422;15.018;2023-09-19T00:14:13;0.48;;;0.47;;
23668;SDS011;12011;47.422;15.018;2023-09-19T00:16:43;0.51;;;0.50;;
23668;SDS011;12011;47.422;15.018;2023-09-19T00:19:15;0.53;;;0.51;;
23668;SDS011;12011;47.422;15.018;2023-09-19T00:21:45;0.50;;;0.48;;
23668;SDS011;12011;47.422;15.018;2023-09-19T00:24:14;0.56;;;0.54;;
23668;SDS011;12011;47.422;15.018;2023-09-19T00:26:46;0.60;;;0.58;;
23668;SDS011;12011;47.422;15.018;2023-09-19T00:29:16;0.49;;;0.47;;
23668;SDS011;12011;47.422;15.018;2023-09-19T00:31:46;0.55;;;0.52;;
23668;SDS011;12011;47.422;15.018;2023-09-19T00:34:15;0.49;;;0.47;;
23668;SDS011;12011;47.422;15.018;2023-09-19T00:36:46;0.53;;;0.51;;
23668;SDS011;12011;47.422;15.018;2023-09-19T00:39:15;0.35;;;0.33;;
23668;SDS011;12011;47.422;15.018;2023-09-19T00:41:48;0.42;;;0.40;;
23668;SDS011;12011;47.422;15.018;2023-09-19T00:44:18;0.38;;;0.35;;
23668;SDS011;12011;47.422;15.018;2023-09-19T00:46:50;0.47;;;0.44;;
23668;SDS011;12011;47.422;15.018;2023-09-19T00:49:21;0.45;;;0.43;;
23668;SDS011;12011;47.422;15.018;2023-09-19T00:51:51;0.37;;;0.36;;
23668;SDS011;12011;47.422;15.018;2023-09-19T00:54:20;0.39;;;0.37;;
23668;SDS011;12011;47.422;15.018;2023-09-19T00:56:54;0.49;;;0.46;;
23668;SDS011;12011;47.422;15.018;2023-09-19T00:59:24;0.47;;;0.45;;
23668;SDS011;12011;47.422;15.018;2023-09-19T01:01:56;0.57;;;0.54;;
23668;SDS011;12011;47.422;15.018;2023-09-19T01:04:31;0.80;;;0.77;;
23668;SDS011;12011;47.422;15.018;2023-09-19T01:07:01;0.48;;;0.46;;
23668;SDS011;12011;47.422;15.018;2023-09-19T01:09:33;0.49;;;0.47;;
23668;SDS011;12011;47.422;15.018;2023-09-19T01:12:07;0.48;;;0.46;;
23668;SDS011;12011;47.422;15.018;2023-09-19T01:14:41;0.62;;;0.59;;
23668;SDS011;12011;47.422;15.018;2023-09-19T01:17:27;0.49;;;0.46;;
23668;SDS011;12011;47.422;15.018;2023-09-19T01:20:06;0.56;;;0.53;;
23668;SDS011;12011;47.422;15.018;2023-09-19T01:22:53;0.53;;;0.53;;
23668;SDS011;12011;47.422;15.018;2023-09-19T01:28:51;0.36;;;0.36;;
23668;SDS011;12011;47.422;15.018;2023-09-19T01:31:26;0.54;;;0.54;;
23668;SDS011;12011;47.422;15.018;2023-09-19T01:34:02;0.59;;;0.59;;
23668;SDS011;12011;47.422;15.018;2023-09-19T01:36:34;0.43;;;0.42;;
23668;SDS011;12011;47.422;15.018;2023-09-19T01:39:07;0.47;;;0.45;;
23668;SDS011;12011;47.422;15.018;2023-09-19T01:41:51;0.74;;;0.71;;
23668;SDS011;12011;47.422;15.018;2023-09-19T01:44:36;0.47;;;0.45;;
23668;SDS011;12011;47.422;15.018;2023-09-19T01:47:26;0.50;;;0.48;;
23668;SDS011;12011;47.422;15.018;2023-09-19T01:50:07;0.50;;;0.48;;
23668;SDS011;12011;47.422;15.018;2023-09-19T01:52:48;0.49;;;0.47;;
23668;SDS011;12011;47.422;15.018;2023-09-19T01:55:26;0.51;;;0.49;;
23668;SDS011;12011;47.422;15.018;2023-09-19T01:58:01;0.31;;;0.30;;
23668;SDS011;12011;47.422;15.018;2023-09-19T02:00:37;0.44;;;0.42;;
23668;SDS011;12011;47.422;15.018;2023-09-19T02:03:14;0.52;;;0.49;;
23668;SDS011;12011;47.422;15.018;2023-09-19T02:05:48;0.34;;;0.32;;
23668;SDS011;12011;47.422;15.018;2023-09-19T02:08:20;0.38;;;0.36;;
23668;SDS011;12011;47.422;15.018;2023-09-19T02:10:52;0.42;;;0.40;;
23668;SDS011;12011;47.422;15.018;2023-09-19T02:13:23;0.56;;;0.53;;
23668;SDS011;12011;47.422;15.018;2023-09-19T02:15:53;0.57;;;0.54;;
23668;SDS011;12011;47.422;15.018;2023-09-19T02:18:26;0.45;;;0.43;;
23668;SDS011;12011;47.422;15.018;2023-09-19T02:20:56;0.41;;;0.39;;
23668;SDS011;12011;47.422;15.018;2023-09-19T02:23:26;0.36;;;0.34;;
23668;SDS011;12011;47.422;15.018;2023-09-19T02:25:57;0.34;;;0.32;;
23668;SDS011;12011;47.422;15.018;2023-09-19T02:28:27;0.33;;;0.31;;
23668;SDS011;12011;47.422;15.018;2023-09-19T02:30:57;0.43;;;0.41;;
23668;SDS011;12011;47.422;15.018;2023-09-19T02:33:31;0.47;;;0.45;;
23668;SDS011;12011;47.422;15.018;2023-09-19T02:36:03;0.32;;;0.30;;
23668;SDS011;12011;47.422;15.018;2023-09-19T02:38:34;0.33;;;0.31;;
23668;SDS011;12011;47.422;15.018;2023-09-19T02:41:04;0.42;;;0.39;;
23668;SDS011;12011;47.422;15.018;2023-09-19T02:43:33;0.37;;;0.35;;
23668;SDS011;12011;47.422;15.018;2023-09-19T02:46:03;0.78;;;0.74;;
23668;SDS011;12011;47.422;15.018;2023-09-19T02:48:36;0.39;;;0.37;;
23668;SDS011;12011;47.422;15.018;2023-09-19T02:51:05;0.54;;;0.51;;
23668;SDS011;12011;47.422;15.018;2023-09-19T02:53:35;0.41;;;0.39;;
23668;SDS011;12011;47.422;15.018;2023-09-19T02:56:05;0.55;;;0.52;;
23668;SDS011;12011;47.422;15.018;2023-09-19T02:58:35;0.59;;;0.55;;
23668;SDS011;12011;47.422;15.018;2023-09-19T03:01:10;0.55;;;0.52;;
23668;SDS011;12011;47.422;15.018;2023-09-19T03:03:43;0.39;;;0.37;;
23668;SDS011;12011;47.422;15.018;2023-09-19T03:06:13;0.55;;;0.51;;
23668;SDS011;12011;47.422;15.018;2023-09-19T03:08:45;0.42;;;0.40;;
23668;SDS011;12011;47.422;15.018;2023-09-19T03:11:18;0.57;;;0.53;;
23668;SDS011;12011;47.422;15.018;2023-09-19T03:13:51;0.55;;;0.52;;
23668;SDS011;12011;47.422;15.018;2023-09-19T03:16:22;0.40;;;0.38;;
23668;SDS011;12011;47.422;15.018;2023-09-19T03:18:58;0.53;;;0.50;;
23668;SDS011;12011;47.422;15.018;2023-09-19T03:21:30;0.54;;;0.51;;
23668;SDS011;12011;47.422;15.018;2023-09-19T03:24:02;0.58;;;0.55;;
23668;SDS011;12011;47.422;15.018;2023-09-19T03:26:33;0.49;;;0.46;;
23668;SDS011;12011;47.422;15.018;2023-09-19T03:29:05;0.42;;;0.39;;
23668;SDS011;12011;47.422;15.018;2023-09-19T03:31:37;0.43;;;0.40;;
23668;SDS011;12011;47.422;15.018;2023-09-19T03:34:10;0.53;;;0.50;;
23668;SDS011;12011;47.422;15.018;2023-09-19T03:36:41;0.68;;;0.64;;
23668;SDS011;12011;47.422;15.018;2023-09-19T03:39:11;0.53;;;0.50;;
23668;SDS011;12011;47.422;15.018;2023-09-19T03:41:42;0.58;;;0.56;;
23668;SDS011;12011;47.422;15.018;2023-09-19T03:44:12;0.62;;;0.60;;
23668;SDS011;12011;47.422;15.018;2023-09-19T03:46:41;0.55;;;0.53;;
23668;SDS011;12011;47.422;15.018;2023-09-19T03:49:13;0.53;;;0.51;;
23668;SDS011;12011;47.422;15.018;2023-09-19T03:51:45;0.47;;;0.45;;
23668;SDS011;12011;47.422;15.018;2023-09-19T03:54:14;0.55;;;0.53;;
23668;SDS011;12011;47.422;15.018;2023-09-19T03:56:45;0.56;;;0.54;;
23668;SDS011;12011;47.422;15.018;2023-09-19T03:59:15;0.68;;;0.67;;
23668;SDS011;12011;47.422;15.018;2023-09-19T04:01:45;0.66;;;0.65;;
23668;SDS011;12011;47.422;15.018;2023-09-19T04:04:18;0.65;;;0.63;;
23668;SDS011;12011;47.422;15.018;2023-09-19T04:06:50;0.70;;;0.69;;
23668;SDS011;12011;47.422;15.018;2023-09-19T04:09:20;0.70;;;0.69;;
23668;SDS011;12011;47.422;15.018;2023-09-19T04:11:49;0.49;;;0.49;;
23668;SDS011;12011;47.422;15.018;2023-09-19T04:14:19;0.41;;;0.41;;
23668;SDS011;12011;47.422;15.018;2023-09-19T04:16:49;0.57;;;0.56;;
23668;SDS011;12011;47.422;15.018;2023-09-19T04:19:21;0.64;;;0.64;;
23668;SDS011;12011;47.422;15.018;2023-09-19T04:21:51;0.61;;;0.60;;
23668;SDS011;12011;47.422;15.018;2023-09-19T04:24:23;0.66;;;0.66;;
23668;SDS011;12011;47.422;15.018;2023-09-19T04:26:52;0.60;;;0.60;;
23668;SDS011;12011;47.422;15.018;2023-09-19T04:29:22;0.55;;;0.55;;
23668;SDS011;12011;47.422;15.018;2023-09-19T04:31:55;0.68;;;0.68;;
23668;SDS011;12011;47.422;15.018;2023-09-19T04:34:27;0.66;;;0.66;;
23668;SDS011;12011;47.422;15.018;2023-09-19T04:37:00;0.68;;;0.68;;
23668;SDS011;12011;47.422;15.018;2023-09-19T04:39:30;0.59;;;0.59;;
23668;SDS011;12011;47.422;15.018;2023-09-19T04:42:00;0.78;;;0.78;;
23668;SDS011;12011;47.422;15.018;2023-09-19T04:44:29;0.91;;;0.91;;
23668;SDS011;12011;47.422;15.018;2023-09-19T04:46:59;0.74;;;0.73;;
23668;SDS011;12011;47.422;15.018;2023-09-19T04:49:31;0.74;;;0.73;;
23668;SDS011;12011;47.422;15.018;2023-09-19T04:52:03;0.86;;;0.85;;
23668;SDS011;12011;47.422;15.018;2023-09-19T04:54:34;1.05;;;1.05;;
23668;SDS011;12011;47.422;15.018;2023-09-19T04:57:07;0.81;;;0.80;;
23668;SDS011;12011;47.422;15.018;2023-09-19T04:59:38;0.86;;;0.85;;
23668;SDS011;12011;47.422;15.018;2023-09-19T05:02:08;0.83;;;0.82;;
23668;SDS011;12011;47.422;15.018;2023-09-19T05:04:59;0.86;;;0.85;;
23668;SDS011;12011;47.422;15.018;2023-09-19T05:07:43;0.87;;;0.87;;
23668;SDS011;12011;47.422;15.018;2023-09-19T05:10:23;0.74;;;0.74;;
23668;SDS011;12011;47.422;15.018;2023-09-19T05:13:18;1.00;;;0.99;;
23668;SDS011;12011;47.422;15.018;2023-09-19T05:18:55;0.96;;;0.95;;
23668;SDS011;12011;47.422;15.018;2023-09-19T05:21:50;0.86;;;0.85;;
23668;SDS011;12011;47.422;15.018;2023-09-19T05:25:35;0.78;;;0.77;;
23668;SDS011;12011;47.422;15.018;2023-09-19T05:28:24;1.03;;;1.03;;
23668;SDS011;12011;47.422;15.018;2023-09-19T05:31:30;1.06;;;1.06;;
23668;SDS011;12011;47.422;15.018;2023-09-19T05:34:27;1.18;;;1.18;;
23668;SDS011;12011;47.422;15.018;2023-09-19T05:40:21;0.89;;;0.89;;
23668;SDS011;12011;47.422;15.018;2023-09-19T05:43:19;0.79;;;0.79;;
23668;SDS011;12011;47.422;15.018;2023-09-19T05:46:17;0.92;;;0.92;;
23668;SDS011;12011;47.422;15.018;2023-09-19T05:49:43;1.05;;;1.04;;
23668;SDS011;12011;47.422;15.018;2023-09-19T05:52:33;1.05;;;1.04;;
23668;SDS011;12011;47.422;15.018;2023-09-19T05:56:23;0.88;;;0.87;;
23668;SDS011;12011;47.422;15.018;2023-09-19T06:03:06;0.96;;;0.95;;
23668;SDS011;12011;47.422;15.018;2023-09-19T06:10:02;1.06;;;1.05;;
23668;SDS011;12011;47.422;15.018;2023-09-19T06:13:06;0.96;;;0.95;;
23668;SDS011;12011;47.422;15.018;2023-09-19T06:16:23;0.92;;;0.92;;
23668;SDS011;12011;47.422;15.018;2023-09-19T06:19:42;0.95;;;0.95;;
23668;SDS011;12011;47.422;15.018;2023-09-19T06:30:01;0.79;;;0.79;;
23668;SDS011;12011;47.422;15.018;2023-09-19T06:33:34;0.74;;;0.74;;
23668;SDS011;12011;47.422;15.018;2023-09-19T06:47:59;0.94;;;0.94;;
23668;SDS011;12011;47.422;15.018;2023-09-19T06:55:16;0.96;;;0.96;;
23668;SDS011;12011;47.422;15.018;2023-09-19T06:58:20;1.00;;;0.99;;
23668;SDS011;12011;47.422;15.018;2023-09-19T07:01:51;1.08;;;1.08;;
23668;SDS011;12011;47.422;15.018;2023-09-19T07:09:12;0.88;;;0.88;;
23668;SDS011;12011;47.422;15.018;2023-09-19T07:12:48;0.92;;;0.92;;
23668;SDS011;12011;47.422;15.018;2023-09-19T07:16:27;0.94;;;0.94;;
23668;SDS011;12011;47.422;15.018;2023-09-19T07:20:17;0.75;;;0.74;;
23668;SDS011;12011;47.422;15.018;2023-09-19T07:24:33;1.01;;;1.01;;
23668;SDS011;12011;47.422;15.018;2023-09-19T07:28:18;0.99;;;0.99;;
23668;SDS011;12011;47.422;15.018;2023-09-19T07:39:14;0.75;;;0.75;;
23668;SDS011;12011;47.422;15.018;2023-09-19T07:42:50;0.84;;;0.84;;
23668;SDS011;12011;47.422;15.018;2023-09-19T07:46:40;0.94;;;0.94;;
23668;SDS011;12011;47.422;15.018;2023-09-19T07:49:55;1.00;;;1.00;;
23668;SDS011;12011;47.422;15.018;2023-09-19T07:57:38;0.82;;;0.81;;
23668;SDS011;12011;47.422;15.018;2023-09-19T08:04:39;0.85;;;0.85;;
23668;SDS011;12011;47.422;15.018;2023-09-19T08:24:08;0.81;;;0.81;;
23668;SDS011;12011;47.422;15.018;2023-09-19T08:27:25;0.91;;;0.91;;
23668;SDS011;12011;47.422;15.018;2023-09-19T08:30:38;0.90;;;0.89;;
23668;SDS011;12011;47.422;15.018;2023-09-19T08:40:50;0.80;;;0.80;;
23668;SDS011;12011;47.422;15.018;2023-09-19T08:47:50;0.72;;;0.72;;
23668;SDS011;12011;47.422;15.018;2023-09-19T09:02:28;0.80;;;0.80;;
23668;SDS011;12011;47.422;15.018;2023-09-19T09:06:02;0.91;;;0.91;;
23668;SDS011;12011;47.422;15.018;2023-09-19T09:12:15;0.68;;;0.68;;
23668;SDS011;12011;47.422;15.018;2023-09-19T09:14:51;0.64;;;0.64;;
23668;SDS011;12011;47.422;15.018;2023-09-19T09:17:30;0.71;;;0.71;;
23668;SDS011;12011;47.422;15.018;2023-09-19T09:20:11;0.76;;;0.76;;
23668;SDS011;12011;47.422;15.018;2023-09-19T09:22:54;0.81;;;0.81;;
23668;SDS011;12011;47.422;15.018;2023-09-19T09:25:51;0.81;;;0.81;;
23668;SDS011;12011;47.422;15.018;2023-09-19T09:28:33;0.75;;;0.75;;
23668;SDS011;12011;47.422;15.018;2023-09-19T09:31:16;0.81;;;0.81;;
23668;SDS011;12011;47.422;15.018;2023-09-19T09:34:18;0.87;;;0.87;;
23668;SDS011;12011;47.422;15.018;2023-09-19T09:37:40;0.74;;;0.74;;
23668;SDS011;12011;47.422;15.018;2023-09-19T09:40:30;0.76;;;0.76;;
23668;SDS011;12011;47.422;15.018;2023-09-19T09:43:50;0.88;;;0.87;;
23668;SDS011;12011;47.422;15.018;2023-09-19T09:46:32;0.77;;;0.77;;
23668;SDS011;12011;47.422;15.018;2023-09-19T09:49:53;0.70;;;0.70;;
23668;SDS011;12011;47.422;15.018;2023-09-19T09:52:58;0.83;;;0.83;;
23668;SDS011;12011;47.422;15.018;2023-09-19T10:02:59;0.72;;;0.72;;
23668;SDS011;12011;47.422;15.018;2023-09-19T10:06:06;1.15;;;1.15;;
23668;SDS011;12011;47.422;15.018;2023-09-19T10:09:20;1.01;;;1.01;;
23668;SDS011;12011;47.422;15.018;2023-09-19T10:12:33;0.79;;;0.79;;
23668;SDS011;12011;47.422;15.018;2023-09-19T10:15:32;0.94;;;0.94;;
23668;SDS011;12011;47.422;15.018;2023-09-19T10:18:12;1.04;;;1.04;;
23668;SDS011;12011;47.422;15.018;2023-09-19T10:20:47;0.73;;;0.73;;
23668;SDS011;12011;47.422;15.018;2023-09-19T10:23:27;0.81;;;0.81;;
23668;SDS011;12011;47.422;15.018;2023-09-19T10:33:01;0.76;;;0.76;;
23668;SDS011;12011;47.422;15.018;2023-09-19T10:35:36;1.10;;;1.10;;
23668;SDS011;12011;47.422;15.018;2023-09-19T10:38:14;0.99;;;0.99;;
23668;SDS011;12011;47.422;15.018;2023-09-19T10:40:49;1.04;;;1.04;;
23668;SDS011;12011;47.422;15.018;2023-09-19T10:43:21;0.79;;;0.79;;
23668;SDS011;12011;47.422;15.018;2023-09-19T10:46:03;0.63;;;0.62;;
23668;SDS011;12011;47.422;15.018;2023-09-19T10:48:38;0.68;;;0.68;;
23668;SDS011;12011;47.422;15.018;2023-09-19T10:51:16;0.75;;;0.75;;
23668;SDS011;12011;47.422;15.018;2023-09-19T10:54:04;0.56;;;0.56;;
23668;SDS011;12011;47.422;15.018;2023-09-19T10:56:49;0.39;;;0.39;;
23668;SDS011;12011;47.422;15.018;2023-09-19T10:59:28;0.68;;;0.68;;
23668;SDS011;12011;47.422;15.018;2023-09-19T11:02:20;0.42;;;0.42;;
23668;SDS011;12011;47.422;15.018;2023-09-19T11:05:11;0.44;;;0.44;;
23668;SDS011;12011;47.422;15.018;2023-09-19T11:08:00;0.55;;;0.55;;
23668;SDS011;12011;47.422;15.018;2023-09-19T11:10:49;0.36;;;0.36;;
23668;SDS011;12011;47.422;15.018;2023-09-19T11:13:33;0.47;;;0.47;;
23668;SDS011;12011;47.422;15.018;2023-09-19T11:16:33;0.34;;;0.34;;
23668;SDS011;12011;47.422;15.018;2023-09-19T11:25:56;0.59;;;0.59;;
23668;SDS011;12011;47.422;15.018;2023-09-19T11:28:31;0.56;;;0.56;;
23668;SDS011;12011;47.422;15.018;2023-09-19T11:34:49;0.65;;;0.65;;
23668;SDS011;12011;47.422;15.018;2023-09-19T11:38:11;0.50;;;0.50;;
23668;SDS011;12011;47.422;15.018;2023-09-19T11:44:32;0.61;;;0.61;;
23668;SDS011;12011;47.422;15.018;2023-09-19T11:47:17;0.56;;;0.55;;
23668;SDS011;12011;47.422;15.018;2023-09-19T11:52:58;0.66;;;0.66;;
23668;SDS011;12011;47.422;15.018;2023-09-19T11:56:59;0.66;;;0.66;;
23668;SDS011;12011;47.422;15.018;2023-09-19T12:03:27;0.63;;;0.62;;
23668;SDS011;12011;47.422;15.018;2023-09-19T12:06:14;0.48;;;0.48;;
23668;SDS011;12011;47.422;15.018;2023-09-19T12:11:50;0.65;;;0.64;;
23668;SDS011;12011;47.422;15.018;2023-09-19T12:14:52;0.69;;;0.69;;
23668;SDS011;12011;47.422;15.018;2023-09-19T12:21:33;0.56;;;0.56;;
23668;SDS011;12011;47.422;15.018;2023-09-19T12:24:53;0.54;;;0.54;;
23668;SDS011;12011;47.422;15.018;2023-09-19T12:27:52;0.65;;;0.64;;
23668;SDS011;12011;47.422;15.018;2023-09-19T12:31:16;0.68;;;0.67;;
23668;SDS011;12011;47.422;15.018;2023-09-19T12:37:23;0.61;;;0.60;;
23668;SDS011;12011;47.422;15.018;2023-09-19T12:40:50;1.06;;;1.04;;
23668;SDS011;12011;47.422;15.018;2023-09-19T12:47:23;0.62;;;0.61;;
23668;SDS011;12011;47.422;15.018;2023-09-19T12:54:16;0.58;;;0.57;;
23668;SDS011;12011;47.422;15.018;2023-09-19T12:57:24;0.59;;;0.58;;
23668;SDS011;12011;47.422;15.018;2023-09-19T13:04:33;0.67;;;0.66;;
23668;SDS011;12011;47.422;15.018;2023-09-19T13:07:58;0.49;;;0.48;;
23668;SDS011;12011;47.422;15.018;2023-09-19T13:11:04;0.57;;;0.57;;
23668;SDS011;12011;47.422;15.018;2023-09-19T13:13:41;0.46;;;0.45;;
23668;SDS011;12011;47.422;15.018;2023-09-19T13:16:15;0.35;;;0.35;;
23668;SDS011;12011;47.422;15.018;2023-09-19T13:18:50;0.50;;;0.50;;
23668;SDS011;12011;47.422;15.018;2023-09-19T13:21:30;0.55;;;0.55;;
23668;SDS011;12011;47.422;15.018;2023-09-19T13:24:21;0.42;;;0.42;;
23668;SDS011;12011;47.422;15.018;2023-09-19T13:26:53;0.42;;;0.42;;
23668;SDS011;12011;47.422;15.018;2023-09-19T13:29:27;0.44;;;0.44;;
23668;SDS011;12011;47.422;15.018;2023-09-19T13:32:04;0.38;;;0.38;;
23668;SDS011;12011;47.422;15.018;2023-09-19T13:34:39;0.51;;;0.51;;
23668;SDS011;12011;47.422;15.018;2023-09-19T13:37:10;0.52;;;0.52;;
23668;SDS011;12011;47.422;15.018;2023-09-19T13:39:47;0.49;;;0.49;;
23668;SDS011;12011;47.422;15.018;2023-09-19T13:42:20;0.32;;;0.32;;
23668;SDS011;12011;47.422;15.018;2023-09-19T13:44:50;0.46;;;0.46;;
23668;SDS011;12011;47.422;15.018;2023-09-19T13:47:21;0.44;;;0.44;;
23668;SDS011;12011;47.422;15.018;2023-09-19T13:49:52;0.56;;;0.56;;
23668;SDS011;12011;47.422;15.018;2023-09-19T13:52:23;0.46;;;0.45;;
23668;SDS011;12011;47.422;15.018;2023-09-19T13:55:00;0.43;;;0.42;;
23668;SDS011;12011;47.422;15.018;2023-09-19T13:57:33;0.50;;;0.50;;
23668;SDS011;12011;47.422;15.018;2023-09-19T14:00:05;0.32;;;0.32;;
23668;SDS011;12011;47.422;15.018;2023-09-19T14:02:47;0.48;;;0.48;;
23668;SDS011;12011;47.422;15.018;2023-09-19T14:05:24;0.46;;;0.46;;
23668;SDS011;12011;47.422;15.018;2023-09-19T14:07:57;0.44;;;0.44;;
23668;SDS011;12011;47.422;15.018;2023-09-19T14:10:44;0.33;;;0.33;;
23668;SDS011;12011;47.422;15.018;2023-09-19T14:13:24;0.38;;;0.38;;
23668;SDS011;12011;47.422;15.018;2023-09-19T14:16:02;0.34;;;0.34;;
23668;SDS011;12011;47.422;15.018;2023-09-19T14:18:41;0.40;;;0.40;;
23668;SDS011;12011;47.422;15.018;2023-09-19T14:21:23;0.46;;;0.46;;
23668;SDS011;12011;47.422;15.018;2023-09-19T14:24:18;0.48;;;0.48;;
23668;SDS011;12011;47.422;15.018;2023-09-19T14:30:18;0.30;;;0.30;;
23668;SDS011;12011;47.422;15.018;2023-09-19T14:33:06;0.46;;;0.46;;
23668;SDS011;12011;47.422;15.018;2023-09-19T14:36:15;0.38;;;0.38;;
23668;SDS011;12011;47.422;15.018;2023-09-19T14:38:51;0.40;;;0.40;;
23668;SDS011;12011;47.422;15.018;2023-09-19T14:41:30;0.44;;;0.43;;
23668;SDS011;12011;47.422;15.018;2023-09-19T14:44:12;0.56;;;0.55;;
23668;SDS011;12011;47.422;15.018;2023-09-19T14:46:54;0.40;;;0.40;;
23668;SDS011;12011;47.422;15.018;2023-09-19T14:50:00;0.35;;;0.34;;
23668;SDS011;12011;47.422;15.018;2023-09-19T14:53:35;0.39;;;0.38;;
23668;SDS011;12011;47.422;15.018;2023-09-19T14:56:23;0.44;;;0.44;;
23668;SDS011;12011;47.422;15.018;2023-09-19T14:59:33;0.55;;;0.55;;
23668;SDS011;12011;47.422;15.018;2023-09-19T15:02:06;0.36;;;0.36;;
23668;SDS011;12011;47.422;15.018;2023-09-19T15:05:03;0.47;;;0.47;;
23668;SDS011;12011;47.422;15.018;2023-09-19T15:07:43;0.43;;;0.43;;
23668;SDS011;12011;47.422;15.018;2023-09-19T15:14:35;0.44;;;0.43;;
23668;SDS011;12011;47.422;15.018;2023-09-19T15:17:42;0.48;;;0.48;;
23668;SDS011;12011;47.422;15.018;2023-09-19T15:24:17;0.29;;;0.29;;
23668;SDS011;12011;47.422;15.018;2023-09-19T15:27:29;0.38;;;0.38;;
23668;SDS011;12011;47.422;15.018;2023-09-19T15:30:14;0.48;;;0.47;;
23668;SDS011;12011;47.422;15.018;2023-09-19T15:32:46;0.44;;;0.44;;
23668;SDS011;12011;47.422;15.018;2023-09-19T15:35:45;0.54;;;0.54;;
23668;SDS011;12011;47.422;15.018;2023-09-19T15:38:26;0.34;;;0.34;;
23668;SDS011;12011;47.422;15.018;2023-09-19T15:41:33;0.50;;;0.50;;
23668;SDS011;12011;47.422;15.018;2023-09-19T15:44:16;0.46;;;0.46;;
23668;SDS011;12011;47.422;15.018;2023-09-19T15:47:14;0.34;;;0.34;;
23668;SDS011;12011;47.422;15.018;2023-09-19T15:52:56;0.39;;;0.39;;
23668;SDS011;12011;47.422;15.018;2023-09-19T15:56:21;0.35;;;0.34;;
23668;SDS011;12011;47.422;15.018;2023-09-19T16:02:43;0.46;;;0.46;;
23668;SDS011;12011;47.422;15.018;2023-09-19T16:10:08;0.37;;;0.37;;
23668;SDS011;12011;47.422;15.018;2023-09-19T16:17:38;0.62;;;0.62;;
23668;SDS011;12011;47.422;15.018;2023-09-19T16:20:23;0.63;;;0.63;;
23668;SDS011;12011;47.422;15.018;2023-09-19T16:22:53;0.60;;;0.60;;
23668;SDS011;12011;47.422;15.018;2023-09-19T16:25:28;0.68;;;0.68;;
23668;SDS011;12011;47.422;15.018;2023-09-19T16:28:06;0.61;;;0.61;;
23668;SDS011;12011;47.422;15.018;2023-09-19T16:30:35;0.51;;;0.51;;
23668;SDS011;12011;47.422;15.018;2023-09-19T16:33:08;0.57;;;0.57;;
23668;SDS011;12011;47.422;15.018;2023-09-19T16:35:39;0.52;;;0.52;;
23668;SDS011;12011;47.422;15.018;2023-09-19T16:38:09;0.86;;;0.85;;
23668;SDS011;12011;47.422;15.018;2023-09-19T16:40:50;0.69;;;0.69;;
23668;SDS011;12011;47.422;15.018;2023-09-19T16:43:21;0.93;;;0.92;;
23668;SDS011;12011;47.422;15.018;2023-09-19T16:45:53;0.71;;;0.70;;
23668;SDS011;12011;47.422;15.018;2023-09-19T16:48:28;0.80;;;0.80;;
23668;SDS011;12011;47.422;15.018;2023-09-19T16:51:00;0.73;;;0.72;;
23668;SDS011;12011;47.422;15.018;2023-09-19T16:53:34;0.79;;;0.79;;
23668;SDS011;12011;47.422;15.018;2023-09-19T16:56:06;0.93;;;0.92;;
23668;SDS011;12011;47.422;15.018;2023-09-19T16:58:40;0.87;;;0.86;;
23668;SDS011;12011;47.422;15.018;2023-09-19T17:01:13;1.00;;;0.99;;
23668;SDS011;12011;47.422;15.018;2023-09-19T17:03:49;0.81;;;0.81;;
23668;SDS011;12011;47.422;15.018;2023-09-19T17:06:22;0.85;;;0.85;;
23668;SDS011;12011;47.422;15.018;2023-09-19T17:08:54;0.87;;;0.87;;
23668;SDS011;12011;47.422;15.018;2023-09-19T17:11:29;0.93;;;0.93;;
23668;SDS011;12011;47.422;15.018;2023-09-19T17:14:01;0.58;;;0.58;;
23668;SDS011;12011;47.422;15.018;2023-09-19T17:16:34;0.74;;;0.74;;
23668;SDS011;12011;47.422;15.018;2023-09-19T17:19:07;0.66;;;0.65;;
23668;SDS011;12011;47.422;15.018;2023-09-19T17:21:38;0.67;;;0.67;;
23668;SDS011;12011;47.422;15.018;2023-09-19T17:24:07;0.77;;;0.76;;
23668;SDS011;12011;47.422;15.018;2023-09-19T17:26:38;0.73;;;0.72;;
23668;SDS011;12011;47.422;15.018;2023-09-19T17:29:08;0.63;;;0.63;;
23668;SDS011;12011;47.422;15.018;2023-09-19T17:31:38;0.64;;;0.64;;
23668;SDS011;12011;47.422;15.018;2023-09-19T17:34:10;0.55;;;0.55;;
23668;SDS011;12011;47.422;15.018;2023-09-19T17:36:41;0.75;;;0.75;;
23668;SDS011;12011;47.422;15.018;2023-09-19T17:39:11;0.64;;;0.64;;
23668;SDS011;12011;47.422;15.018;2023-09-19T17:41:43;0.70;;;0.70;;
23668;SDS011;12011;47.422;15.018;2023-09-19T17:44:12;0.71;;;0.71;;
23668;SDS011;12011;47.422;15.018;2023-09-19T17:46:45;0.88;;;0.88;;
23668;SDS011;12011;47.422;15.018;2023-09-19T17:49:22;0.90;;;0.90;;
23668;SDS011;12011;47.422;15.018;2023-09-19T17:51:57;0.68;;;0.68;;
23668;SDS011;12011;47.422;15.018;2023-09-19T17:54:26;0.88;;;0.88;;
23668;SDS011;12011;47.422;15.018;2023-09-19T17:56:57;0.96;;;0.96;;
23668;SDS011;12011;47.422;15.018;2023-09-19T17:59:30;1.21;;;1.20;;
23668;SDS011;12011;47.422;15.018;2023-09-19T18:02:01;3.96;;;3.95;;
23668;SDS011;12011;47.422;15.018;2023-09-19T18:04:36;2.14;;;2.14;;
23668;SDS011;12011;47.422;15.018;2023-09-19T18:07:10;0.92;;;0.92;;
23668;SDS011;12011;47.422;15.018;2023-09-19T18:09:47;1.07;;;1.06;;
23668;SDS011;12011;47.422;15.018;2023-09-19T18:12:19;1.05;;;1.04;;
23668;SDS011;12011;47.422;15.018;2023-09-19T18:14:51;0.85;;;0.84;;
23668;SDS011;12011;47.422;15.018;2023-09-19T18:17:24;1.02;;;1.01;;
23668;SDS011;12011;47.422;15.018;2023-09-19T18:20:00;0.97;;;0.97;;
23668;SDS011;12011;47.422;15.018;2023-09-19T18:22:30;0.74;;;0.73;;
23668;SDS011;12011;47.422;15.018;2023-09-19T18:25:08;0.79;;;0.78;;
23668;SDS011;12011;47.422;15.018;2023-09-19T18:27:41;0.85;;;0.85;;
23668;SDS011;12011;47.422;15.018;2023-09-19T18:30:23;1.01;;;1.00;;
23668;SDS011;12011;47.422;15.018;2023-09-19T18:32:54;0.78;;;0.77;;
23668;SDS011;12011;47.422;15.018;2023-09-19T18:35:26;0.79;;;0.79;;
23668;SDS011;12011;47.422;15.018;2023-09-19T18:37:56;0.69;;;0.69;;
23668;SDS011;12011;47.422;15.018;2023-09-19T18:40:50;0.73;;;0.73;;
23668;SDS011;12011;47.422;15.018;2023-09-19T18:43:43;0.72;;;0.72;;
23668;SDS011;12011;47.422;15.018;2023-09-19T18:46:31;0.73;;;0.72;;
23668;SDS011;12011;47.422;15.018;2023-09-19T18:49:03;0.69;;;0.68;;
23668;SDS011;12011;47.422;15.018;2023-09-19T18:51:40;1.02;;;1.01;;
23668;SDS011;12011;47.422;15.018;2023-09-19T18:54:11;0.76;;;0.75;;
23668;SDS011;12011;47.422;15.018;2023-09-19T18:56:41;0.76;;;0.76;;
23668;SDS011;12011;47.422;15.018;2023-09-19T18:59:12;0.76;;;0.75;;
23668;SDS011;12011;47.422;15.018;2023-09-19T19:01:48;0.63;;;0.62;;
23668;SDS011;12011;47.422;15.018;2023-09-19T19:04:19;0.72;;;0.72;;
23668;SDS011;12011;47.422;15.018;2023-09-19T19:06:53;0.72;;;0.72;;
23668;SDS011;12011;47.422;15.018;2023-09-19T19:09:23;0.75;;;0.75;;
23668;SDS011;12011;47.422;15.018;2023-09-19T19:11:53;0.69;;;0.69;;
23668;SDS011;12011;47.422;15.018;2023-09-19T19:14:27;0.77;;;0.77;;
23668;SDS011;12011;47.422;15.018;2023-09-19T19:16:58;0.83;;;0.83;;